sensor_id;sensor_type;location;lat;lon;timestamp;P1;durP1;ratioP1;P2;durP2;ratioP2
65759;SDS011;52496;51.082;5.066;2023-03-01T00:02:16;13.32;;;7.70;;
65759;SDS011;52496;51.082;5.066;2023-03-01T00:04:47;14.50;;;8.02;;
65759;SDS011;52496;51.082;5.066;2023-03-01T00:07:18;12.35;;;7.70;;
65759;SDS011;52496;51.082;5.066;2023-03-01T00:09:48;12.90;;;7.85;;
65759;SDS011;52496;51.082;5.066;2023-03-01T00:12:19;12.93;;;7.68;;
65759;SDS011;52496;51.082;5.066;2023-03-01T00:14:50;14.05;;;8.15;;
65759;SDS011;52496;51.082;5.066;2023-03-01T00:17:20;16.80;;;7.70;;
65759;SDS011;52496;51.082;5.066;2023-03-01T00:19:51;12.35;;;7.82;;
65759;SDS011;52496;51.082;5.066;2023-03-01T00:22:21;14.32;;;8.10;;
65759;SDS011;52496;51.082;5.066;2023-03-01T00:24:53;11.93;;;6.82;;
65759;SDS011;52496;51.082;5.066;2023-03-01T00:27:24;15.10;;;7.32;;
65759;SDS011;52496;51.082;5.066;2023-03-01T00:29:54;12.50;;;7.78;;
65759;SDS011;52496;51.082;5.066;2023-03-01T00:32:25;15.85;;;8.93;;
65759;SDS011;52496;51.082;5.066;2023-03-01T00:34:55;12.90;;;8.23;;
65759;SDS011;52496;51.082;5.066;2023-03-01T00:37:26;17.90;;;9.23;;
65759;SDS011;52496;51.082;5.066;2023-03-01T00:39:57;17.63;;;8.52;;
65759;SDS011;52496;51.082;5.066;2023-03-01T00:42:28;12.95;;;8.13;;
65759;SDS011;52496;51.082;5.066;2023-03-01T00:44:58;12.68;;;8.10;;
65759;SDS011;52496;51.082;5.066;2023-03-01T00:47:32;15.68;;;8.35;;
65759;SDS011;52496;51.082;5.066;2023-03-01T00:50:02;14.43;;;9.02;;
65759;SDS011;52496;51.082;5.066;2023-03-01T00:52:33;14.95;;;8.43;;
65759;SDS011;52496;51.082;5.066;2023-03-01T00:55:03;14.52;;;9.23;;
65759;SDS011;52496;51.082;5.066;2023-03-01T00:57:35;14.65;;;8.27;;
65759;SDS011;52496;51.082;5.066;2023-03-01T01:00:06;15.02;;;8.50;;
65759;SDS011;52496;51.082;5.066;2023-03-01T01:02:39;12.73;;;7.25;;
65759;SDS011;52496;51.082;5.066;2023-03-01T01:05:10;15.75;;;8.57;;
65759;SDS011;52496;51.082;5.066;2023-03-01T01:07:41;14.68;;;7.88;;
65759;SDS011;52496;51.082;5.066;2023-03-01T01:10:11;16.27;;;7.93;;
65759;SDS011;52496;51.082;5.066;2023-03-01T01:12:46;15.30;;;7.90;;
65759;SDS011;52496;51.082;5.066;2023-03-01T01:15:17;12.73;;;7.47;;
65759;SDS011;52496;51.082;5.066;2023-03-01T01:17:47;13.98;;;8.45;;
65759;SDS011;52496;51.082;5.066;2023-03-01T01:20:18;15.77;;;7.40;;
65759;SDS011;52496;51.082;5.066;2023-03-01T01:22:49;13.98;;;7.55;;
65759;SDS011;52496;51.082;5.066;2023-03-01T01:25:19;14.63;;;8.35;;
65759;SDS011;52496;51.082;5.066;2023-03-01T01:27:50;16.48;;;8.10;;
65759;SDS011;52496;51.082;5.066;2023-03-01T01:30:21;11.73;;;7.30;;
65759;SDS011;52496;51.082;5.066;2023-03-01T01:32:52;14.73;;;8.45;;
65759;SDS011;52496;51.082;5.066;2023-03-01T01:35:22;14.07;;;8.23;;
65759;SDS011;52496;51.082;5.066;2023-03-01T01:37:53;15.40;;;9.13;;
65759;SDS011;52496;51.082;5.066;2023-03-01T01:40:23;14.30;;;7.65;;
65759;SDS011;52496;51.082;5.066;2023-03-01T01:42:54;12.40;;;7.85;;
65759;SDS011;52496;51.082;5.066;2023-03-01T01:45:29;12.93;;;7.63;;
65759;SDS011;52496;51.082;5.066;2023-03-01T01:48:04;17.38;;;8.13;;
65759;SDS011;52496;51.082;5.066;2023-03-01T01:50:41;13.15;;;7.32;;
65759;SDS011;52496;51.082;5.066;2023-03-01T01:53:15;14.98;;;8.02;;
65759;SDS011;52496;51.082;5.066;2023-03-01T01:55:49;17.27;;;7.78;;
65759;SDS011;52496;51.082;5.066;2023-03-01T01:58:23;11.60;;;7.72;;
65759;SDS011;52496;51.082;5.066;2023-03-01T02:00:56;16.38;;;8.50;;
65759;SDS011;52496;51.082;5.066;2023-03-01T02:03:28;15.27;;;8.57;;
65759;SDS011;52496;51.082;5.066;2023-03-01T02:08:49;12.20;;;7.97;;
65759;SDS011;52496;51.082;5.066;2023-03-01T02:11:21;13.75;;;7.90;;
65759;SDS011;52496;51.082;5.066;2023-03-01T02:13:52;16.23;;;8.35;;
65759;SDS011;52496;51.082;5.066;2023-03-01T02:16:24;21.20;;;9.20;;
65759;SDS011;52496;51.082;5.066;2023-03-01T02:18:56;12.15;;;7.30;;
65759;SDS011;52496;51.082;5.066;2023-03-01T02:21:37;13.70;;;7.45;;
65759;SDS011;52496;51.082;5.066;2023-03-01T02:26:57;14.02;;;8.50;;
65759;SDS011;52496;51.082;5.066;2023-03-01T02:29:29;12.05;;;7.72;;
65759;SDS011;52496;51.082;5.066;2023-03-01T02:32:00;15.70;;;8.30;;
65759;SDS011;52496;51.082;5.066;2023-03-01T02:34:33;15.30;;;8.57;;
65759;SDS011;52496;51.082;5.066;2023-03-01T02:37:07;13.57;;;7.72;;
65759;SDS011;52496;51.082;5.066;2023-03-01T02:39:46;16.20;;;8.70;;
65759;SDS011;52496;51.082;5.066;2023-03-01T02:42:21;13.05;;;7.57;;
65759;SDS011;52496;51.082;5.066;2023-03-01T02:44:55;14.93;;;8.45;;
65759;SDS011;52496;51.082;5.066;2023-03-01T02:47:26;12.75;;;7.82;;
65759;SDS011;52496;51.082;5.066;2023-03-01T02:49:57;13.50;;;8.30;;
65759;SDS011;52496;51.082;5.066;2023-03-01T02:52:47;13.45;;;7.93;;
65759;SDS011;52496;51.082;5.066;2023-03-01T02:55:26;13.93;;;8.63;;
65759;SDS011;52496;51.082;5.066;2023-03-01T02:57:57;13.13;;;7.95;;
65759;SDS011;52496;51.082;5.066;2023-03-01T03:00:36;17.58;;;8.50;;
65759;SDS011;52496;51.082;5.066;2023-03-01T03:03:10;16.45;;;8.45;;
65759;SDS011;52496;51.082;5.066;2023-03-01T03:05:43;13.23;;;7.10;;
65759;SDS011;52496;51.082;5.066;2023-03-01T03:08:14;16.63;;;8.02;;
65759;SDS011;52496;51.082;5.066;2023-03-01T03:10:53;14.98;;;8.25;;
65759;SDS011;52496;51.082;5.066;2023-03-01T03:13:24;18.30;;;8.88;;
65759;SDS011;52496;51.082;5.066;2023-03-01T03:15:58;12.98;;;7.72;;
65759;SDS011;52496;51.082;5.066;2023-03-01T03:18:29;15.07;;;8.82;;
65759;SDS011;52496;51.082;5.066;2023-03-01T03:20:59;16.23;;;8.63;;
65759;SDS011;52496;51.082;5.066;2023-03-01T03:23:30;19.30;;;8.57;;
65759;SDS011;52496;51.082;5.066;2023-03-01T03:26:00;15.13;;;8.95;;
65759;SDS011;52496;51.082;5.066;2023-03-01T03:28:31;15.63;;;8.45;;
65759;SDS011;52496;51.082;5.066;2023-03-01T03:31:03;14.43;;;7.78;;
65759;SDS011;52496;51.082;5.066;2023-03-01T03:33:36;15.23;;;8.65;;
65759;SDS011;52496;51.082;5.066;2023-03-01T03:36:07;15.93;;;8.50;;
65759;SDS011;52496;51.082;5.066;2023-03-01T03:38:43;13.02;;;9.40;;
65759;SDS011;52496;51.082;5.066;2023-03-01T03:41:16;17.98;;;8.30;;
65759;SDS011;52496;51.082;5.066;2023-03-01T03:43:47;12.73;;;8.23;;
65759;SDS011;52496;51.082;5.066;2023-03-01T03:46:18;15.10;;;7.45;;
65759;SDS011;52496;51.082;5.066;2023-03-01T03:48:49;15.68;;;9.40;;
65759;SDS011;52496;51.082;5.066;2023-03-01T03:51:20;12.52;;;7.50;;
65759;SDS011;52496;51.082;5.066;2023-03-01T03:53:52;14.27;;;8.32;;
65759;SDS011;52496;51.082;5.066;2023-03-01T03:56:23;14.95;;;8.88;;
65759;SDS011;52496;51.082;5.066;2023-03-01T03:58:56;16.00;;;9.40;;
65759;SDS011;52496;51.082;5.066;2023-03-01T04:01:27;15.75;;;7.60;;
65759;SDS011;52496;51.082;5.066;2023-03-01T04:03:57;12.60;;;7.40;;
65759;SDS011;52496;51.082;5.066;2023-03-01T04:06:33;14.50;;;7.70;;
65759;SDS011;52496;51.082;5.066;2023-03-01T04:09:04;16.70;;;8.38;;
65759;SDS011;52496;51.082;5.066;2023-03-01T04:11:35;13.02;;;9.02;;
65759;SDS011;52496;51.082;5.066;2023-03-01T04:14:05;17.92;;;8.73;;
65759;SDS011;52496;51.082;5.066;2023-03-01T04:16:36;16.05;;;9.32;;
65759;SDS011;52496;51.082;5.066;2023-03-01T04:19:07;15.95;;;8.70;;
65759;SDS011;52496;51.082;5.066;2023-03-01T04:21:39;14.45;;;8.45;;
65759;SDS011;52496;51.082;5.066;2023-03-01T04:24:10;15.23;;;8.30;;
65759;SDS011;52496;51.082;5.066;2023-03-01T04:26:40;12.05;;;7.63;;
65759;SDS011;52496;51.082;5.066;2023-03-01T04:29:11;16.33;;;8.43;;
65759;SDS011;52496;51.082;5.066;2023-03-01T04:31:41;16.33;;;9.30;;
65759;SDS011;52496;51.082;5.066;2023-03-01T04:34:12;14.35;;;7.25;;
65759;SDS011;52496;51.082;5.066;2023-03-01T04:36:44;16.73;;;8.68;;
65759;SDS011;52496;51.082;5.066;2023-03-01T04:39:14;15.00;;;8.98;;
65759;SDS011;52496;51.082;5.066;2023-03-01T04:41:45;17.20;;;8.85;;
65759;SDS011;52496;51.082;5.066;2023-03-01T04:44:15;15.80;;;9.25;;
65759;SDS011;52496;51.082;5.066;2023-03-01T04:46:48;16.23;;;8.45;;
65759;SDS011;52496;51.082;5.066;2023-03-01T04:49:19;17.52;;;8.27;;
65759;SDS011;52496;51.082;5.066;2023-03-01T04:51:50;13.88;;;8.52;;
65759;SDS011;52496;51.082;5.066;2023-03-01T04:54:20;17.58;;;9.45;;
65759;SDS011;52496;51.082;5.066;2023-03-01T04:56:51;13.65;;;8.40;;
65759;SDS011;52496;51.082;5.066;2023-03-01T04:59:21;15.43;;;8.45;;
65759;SDS011;52496;51.082;5.066;2023-03-01T05:01:53;15.70;;;9.57;;
65759;SDS011;52496;51.082;5.066;2023-03-01T05:04:25;15.63;;;8.52;;
65759;SDS011;52496;51.082;5.066;2023-03-01T05:06:56;17.10;;;8.13;;
65759;SDS011;52496;51.082;5.066;2023-03-01T05:09:28;14.07;;;8.70;;
65759;SDS011;52496;51.082;5.066;2023-03-01T05:11:59;12.90;;;7.85;;
65759;SDS011;52496;51.082;5.066;2023-03-01T05:14:36;15.93;;;8.55;;
65759;SDS011;52496;51.082;5.066;2023-03-01T05:17:08;17.85;;;9.40;;
65759;SDS011;52496;51.082;5.066;2023-03-01T05:19:38;14.90;;;8.32;;
65759;SDS011;52496;51.082;5.066;2023-03-01T05:22:12;15.50;;;7.95;;
65759;SDS011;52496;51.082;5.066;2023-03-01T05:24:45;17.40;;;8.68;;
65759;SDS011;52496;51.082;5.066;2023-03-01T05:27:16;16.25;;;7.80;;
65759;SDS011;52496;51.082;5.066;2023-03-01T05:29:48;17.60;;;9.73;;
65759;SDS011;52496;51.082;5.066;2023-03-01T05:32:19;17.55;;;10.13;;
65759;SDS011;52496;51.082;5.066;2023-03-01T05:34:49;19.60;;;10.68;;
65759;SDS011;52496;51.082;5.066;2023-03-01T05:37:22;16.67;;;10.57;;
65759;SDS011;52496;51.082;5.066;2023-03-01T05:39:52;18.77;;;10.68;;
65759;SDS011;52496;51.082;5.066;2023-03-01T05:42:23;24.27;;;12.65;;
65759;SDS011;52496;51.082;5.066;2023-03-01T05:44:54;29.27;;;13.02;;
65759;SDS011;52496;51.082;5.066;2023-03-01T05:47:24;22.05;;;13.05;;
65759;SDS011;52496;51.082;5.066;2023-03-01T05:49:55;18.92;;;10.68;;
65759;SDS011;52496;51.082;5.066;2023-03-01T05:52:25;22.73;;;11.93;;
65759;SDS011;52496;51.082;5.066;2023-03-01T05:54:56;21.65;;;11.05;;
65759;SDS011;52496;51.082;5.066;2023-03-01T05:57:27;18.05;;;10.10;;
65759;SDS011;52496;51.082;5.066;2023-03-01T05:59:59;18.85;;;10.13;;
65759;SDS011;52496;51.082;5.066;2023-03-01T06:02:29;17.13;;;10.15;;
65759;SDS011;52496;51.082;5.066;2023-03-01T06:05:00;20.52;;;10.02;;
65759;SDS011;52496;51.082;5.066;2023-03-01T06:07:31;18.08;;;9.48;;
65759;SDS011;52496;51.082;5.066;2023-03-01T06:10:02;18.85;;;9.88;;
65759;SDS011;52496;51.082;5.066;2023-03-01T06:12:34;21.50;;;9.73;;
65759;SDS011;52496;51.082;5.066;2023-03-01T06:15:06;17.52;;;9.10;;
65759;SDS011;52496;51.082;5.066;2023-03-01T06:17:42;15.63;;;8.95;;
65759;SDS011;52496;51.082;5.066;2023-03-01T06:20:16;17.40;;;9.25;;
65759;SDS011;52496;51.082;5.066;2023-03-01T06:22:49;17.73;;;9.20;;
65759;SDS011;52496;51.082;5.066;2023-03-01T06:25:23;18.75;;;9.70;;
65759;SDS011;52496;51.082;5.066;2023-03-01T06:27:55;17.50;;;9.50;;
65759;SDS011;52496;51.082;5.066;2023-03-01T06:30:26;15.45;;;8.93;;
65759;SDS011;52496;51.082;5.066;2023-03-01T06:32:57;17.73;;;9.45;;
65759;SDS011;52496;51.082;5.066;2023-03-01T06:35:30;24.98;;;10.15;;
65759;SDS011;52496;51.082;5.066;2023-03-01T06:38:01;16.33;;;9.52;;
65759;SDS011;52496;51.082;5.066;2023-03-01T06:40:33;17.20;;;9.35;;
65759;SDS011;52496;51.082;5.066;2023-03-01T06:43:05;16.63;;;9.45;;
65759;SDS011;52496;51.082;5.066;2023-03-01T06:45:37;18.33;;;9.35;;
65759;SDS011;52496;51.082;5.066;2023-03-01T06:48:07;18.95;;;10.15;;
65759;SDS011;52496;51.082;5.066;2023-03-01T06:50:38;16.83;;;9.93;;
65759;SDS011;52496;51.082;5.066;2023-03-01T06:53:08;15.57;;;9.20;;
65759;SDS011;52496;51.082;5.066;2023-03-01T06:55:38;18.70;;;9.85;;
65759;SDS011;52496;51.082;5.066;2023-03-01T06:58:09;18.63;;;10.80;;
65759;SDS011;52496;51.082;5.066;2023-03-01T07:00:40;18.30;;;10.07;;
65759;SDS011;52496;51.082;5.066;2023-03-01T07:03:13;17.15;;;10.52;;
65759;SDS011;52496;51.082;5.066;2023-03-01T07:05:43;19.88;;;9.25;;
65759;SDS011;52496;51.082;5.066;2023-03-01T07:08:14;18.35;;;10.20;;
65759;SDS011;52496;51.082;5.066;2023-03-01T07:10:45;19.25;;;10.23;;
65759;SDS011;52496;51.082;5.066;2023-03-01T07:13:15;18.05;;;9.18;;
65759;SDS011;52496;51.082;5.066;2023-03-01T07:15:46;19.35;;;10.57;;
65759;SDS011;52496;51.082;5.066;2023-03-01T07:18:17;18.70;;;10.77;;
65759;SDS011;52496;51.082;5.066;2023-03-01T07:20:48;15.88;;;10.02;;
65759;SDS011;52496;51.082;5.066;2023-03-01T07:23:19;19.52;;;10.30;;
65759;SDS011;52496;51.082;5.066;2023-03-01T07:25:53;19.05;;;11.27;;
65759;SDS011;52496;51.082;5.066;2023-03-01T07:28:24;16.50;;;9.90;;
65759;SDS011;52496;51.082;5.066;2023-03-01T07:30:54;15.43;;;9.07;;
65759;SDS011;52496;51.082;5.066;2023-03-01T07:33:25;24.25;;;11.07;;
65759;SDS011;52496;51.082;5.066;2023-03-01T07:35:59;16.50;;;9.48;;
65759;SDS011;52496;51.082;5.066;2023-03-01T07:38:31;16.90;;;10.52;;
65759;SDS011;52496;51.082;5.066;2023-03-01T07:41:03;20.98;;;9.57;;
65759;SDS011;52496;51.082;5.066;2023-03-01T07:43:34;25.13;;;10.05;;
65759;SDS011;52496;51.082;5.066;2023-03-01T07:46:04;14.20;;;8.13;;
65759;SDS011;52496;51.082;5.066;2023-03-01T07:48:36;14.07;;;8.38;;
65759;SDS011;52496;51.082;5.066;2023-03-01T07:51:06;16.00;;;10.02;;
65759;SDS011;52496;51.082;5.066;2023-03-01T07:53:37;20.17;;;9.18;;
65759;SDS011;52496;51.082;5.066;2023-03-01T07:56:11;13.88;;;8.98;;
65759;SDS011;52496;51.082;5.066;2023-03-01T07:58:43;15.52;;;10.10;;
65759;SDS011;52496;51.082;5.066;2023-03-01T08:01:15;15.02;;;9.48;;
65759;SDS011;52496;51.082;5.066;2023-03-01T08:03:47;18.17;;;10.23;;
65759;SDS011;52496;51.082;5.066;2023-03-01T08:06:18;16.77;;;10.18;;
65759;SDS011;52496;51.082;5.066;2023-03-01T08:08:48;15.52;;;8.25;;
65759;SDS011;52496;51.082;5.066;2023-03-01T08:11:19;16.10;;;9.98;;
65759;SDS011;52496;51.082;5.066;2023-03-01T08:13:49;14.75;;;9.27;;
65759;SDS011;52496;51.082;5.066;2023-03-01T08:16:20;20.70;;;9.00;;
65759;SDS011;52496;51.082;5.066;2023-03-01T08:18:51;15.65;;;8.85;;
65759;SDS011;52496;51.082;5.066;2023-03-01T08:21:21;13.45;;;8.25;;
65759;SDS011;52496;51.082;5.066;2023-03-01T08:23:52;16.52;;;9.20;;
65759;SDS011;52496;51.082;5.066;2023-03-01T08:26:22;14.68;;;9.43;;
65759;SDS011;52496;51.082;5.066;2023-03-01T08:28:53;14.65;;;9.05;;
65759;SDS011;52496;51.082;5.066;2023-03-01T08:34:04;17.63;;;9.43;;
65759;SDS011;52496;51.082;5.066;2023-03-01T08:36:37;15.85;;;9.40;;
65759;SDS011;52496;51.082;5.066;2023-03-01T08:39:11;13.68;;;8.63;;
65759;SDS011;52496;51.082;5.066;2023-03-01T08:41:43;20.92;;;9.25;;
65759;SDS011;52496;51.082;5.066;2023-03-01T08:44:14;16.67;;;8.45;;
65759;SDS011;52496;51.082;5.066;2023-03-01T08:46:46;14.43;;;8.82;;
65759;SDS011;52496;51.082;5.066;2023-03-01T08:49:18;18.40;;;8.80;;
65759;SDS011;52496;51.082;5.066;2023-03-01T08:51:49;12.57;;;7.72;;
65759;SDS011;52496;51.082;5.066;2023-03-01T08:54:20;14.05;;;8.18;;
65759;SDS011;52496;51.082;5.066;2023-03-01T08:56:51;17.90;;;8.68;;
65759;SDS011;52496;51.082;5.066;2023-03-01T08:59:22;13.45;;;8.35;;
65759;SDS011;52496;51.082;5.066;2023-03-01T09:01:52;13.55;;;7.45;;
65759;SDS011;52496;51.082;5.066;2023-03-01T09:04:23;14.82;;;8.75;;
65759;SDS011;52496;51.082;5.066;2023-03-01T09:06:53;17.35;;;8.85;;
65759;SDS011;52496;51.082;5.066;2023-03-01T09:09:24;13.63;;;7.82;;
65759;SDS011;52496;51.082;5.066;2023-03-01T09:11:54;14.65;;;8.30;;
65759;SDS011;52496;51.082;5.066;2023-03-01T09:14:25;16.45;;;8.38;;
65759;SDS011;52496;51.082;5.066;2023-03-01T09:16:55;13.32;;;8.85;;
65759;SDS011;52496;51.082;5.066;2023-03-01T09:19:26;26.35;;;8.57;;
65759;SDS011;52496;51.082;5.066;2023-03-01T09:21:56;13.25;;;7.57;;
65759;SDS011;52496;51.082;5.066;2023-03-01T09:24:28;16.25;;;8.55;;
65759;SDS011;52496;51.082;5.066;2023-03-01T09:26:58;15.98;;;9.45;;
65759;SDS011;52496;51.082;5.066;2023-03-01T09:29:29;22.27;;;9.57;;
65759;SDS011;52496;51.082;5.066;2023-03-01T09:31:59;13.43;;;8.57;;
65759;SDS011;52496;51.082;5.066;2023-03-01T09:34:30;15.77;;;8.85;;
65759;SDS011;52496;51.082;5.066;2023-03-01T09:37:01;16.33;;;8.32;;
65759;SDS011;52496;51.082;5.066;2023-03-01T09:39:32;14.98;;;8.73;;
65759;SDS011;52496;51.082;5.066;2023-03-01T09:42:02;14.55;;;7.60;;
65759;SDS011;52496;51.082;5.066;2023-03-01T09:44:42;12.95;;;8.02;;
65759;SDS011;52496;51.082;5.066;2023-03-01T09:47:24;17.17;;;7.82;;
65759;SDS011;52496;51.082;5.066;2023-03-01T09:50:00;15.13;;;8.65;;
65759;SDS011;52496;51.082;5.066;2023-03-01T09:55:46;14.32;;;7.53;;
65759;SDS011;52496;51.082;5.066;2023-03-01T10:01:46;14.02;;;8.77;;
65759;SDS011;52496;51.082;5.066;2023-03-01T10:06:39;13.07;;;8.30;;
65759;SDS011;52496;51.082;5.066;2023-03-01T10:09:17;15.00;;;8.75;;
65759;SDS011;52496;51.082;5.066;2023-03-01T10:11:56;16.30;;;8.50;;
65759;SDS011;52496;51.082;5.066;2023-03-01T10:14:38;17.45;;;8.60;;
65759;SDS011;52496;51.082;5.066;2023-03-01T10:20:13;14.32;;;8.48;;
65759;SDS011;52496;51.082;5.066;2023-03-01T10:22:44;13.82;;;8.55;;
65759;SDS011;52496;51.082;5.066;2023-03-01T10:28:22;11.88;;;7.75;;
65759;SDS011;52496;51.082;5.066;2023-03-01T10:31:21;15.40;;;8.93;;
65759;SDS011;52496;51.082;5.066;2023-03-01T10:34:00;16.55;;;8.48;;
65759;SDS011;52496;51.082;5.066;2023-03-01T10:36:32;15.20;;;8.30;;
65759;SDS011;52496;51.082;5.066;2023-03-01T10:39:05;15.63;;;8.50;;
65759;SDS011;52496;51.082;5.066;2023-03-01T10:41:56;15.20;;;8.63;;
65759;SDS011;52496;51.082;5.066;2023-03-01T10:44:35;18.15;;;8.07;;
65759;SDS011;52496;51.082;5.066;2023-03-01T10:47:26;17.27;;;9.05;;
65759;SDS011;52496;51.082;5.066;2023-03-01T10:49:59;15.15;;;8.63;;
65759;SDS011;52496;51.082;5.066;2023-03-01T10:52:37;17.52;;;9.13;;
65759;SDS011;52496;51.082;5.066;2023-03-01T11:01:05;14.82;;;8.18;;
65759;SDS011;52496;51.082;5.066;2023-03-01T11:06:37;12.52;;;8.32;;
65759;SDS011;52496;51.082;5.066;2023-03-01T11:09:17;19.05;;;9.20;;
65759;SDS011;52496;51.082;5.066;2023-03-01T11:11:53;17.30;;;9.38;;
65759;SDS011;52496;51.082;5.066;2023-03-01T11:14:26;15.02;;;9.15;;
65759;SDS011;52496;51.082;5.066;2023-03-01T11:17:01;12.15;;;8.25;;
65759;SDS011;52496;51.082;5.066;2023-03-01T11:19:32;13.52;;;8.70;;
65759;SDS011;52496;51.082;5.066;2023-03-01T11:22:13;13.50;;;7.82;;
65759;SDS011;52496;51.082;5.066;2023-03-01T11:24:50;14.60;;;7.70;;
65759;SDS011;52496;51.082;5.066;2023-03-01T11:27:35;15.57;;;9.18;;
65759;SDS011;52496;51.082;5.066;2023-03-01T11:30:30;17.77;;;9.38;;
65759;SDS011;52496;51.082;5.066;2023-03-01T11:36:02;13.20;;;7.90;;
65759;SDS011;52496;51.082;5.066;2023-03-01T11:38:35;17.52;;;8.27;;
65759;SDS011;52496;51.082;5.066;2023-03-01T11:41:15;15.70;;;8.60;;
65759;SDS011;52496;51.082;5.066;2023-03-01T11:51:56;14.35;;;8.30;;
65759;SDS011;52496;51.082;5.066;2023-03-01T12:03:38;18.58;;;8.35;;
65759;SDS011;52496;51.082;5.066;2023-03-01T12:09:02;18.27;;;8.70;;
65759;SDS011;52496;51.082;5.066;2023-03-01T12:17:41;13.18;;;8.13;;
65759;SDS011;52496;51.082;5.066;2023-03-01T12:23:48;15.68;;;9.02;;
65759;SDS011;52496;51.082;5.066;2023-03-01T12:26:46;15.25;;;8.60;;
65759;SDS011;52496;51.082;5.066;2023-03-01T12:32:12;15.52;;;8.07;;
65759;SDS011;52496;51.082;5.066;2023-03-01T12:34:55;11.95;;;7.80;;
65759;SDS011;52496;51.082;5.066;2023-03-01T12:37:52;19.35;;;8.20;;
65759;SDS011;52496;51.082;5.066;2023-03-01T12:45:57;16.17;;;9.63;;
65759;SDS011;52496;51.082;5.066;2023-03-01T12:48:40;14.35;;;8.57;;
65759;SDS011;52496;51.082;5.066;2023-03-01T12:51:23;13.68;;;8.25;;
65759;SDS011;52496;51.082;5.066;2023-03-01T12:53:57;13.90;;;8.75;;
65759;SDS011;52496;51.082;5.066;2023-03-01T12:56:31;15.57;;;8.20;;
65759;SDS011;52496;51.082;5.066;2023-03-01T13:04:17;14.07;;;8.18;;
65759;SDS011;52496;51.082;5.066;2023-03-01T13:12:46;13.48;;;8.27;;
65759;SDS011;52496;51.082;5.066;2023-03-01T13:17:55;14.93;;;8.27;;
65759;SDS011;52496;51.082;5.066;2023-03-01T13:20:31;12.65;;;7.45;;
65759;SDS011;52496;51.082;5.066;2023-03-01T13:26:05;13.13;;;7.53;;
65759;SDS011;52496;51.082;5.066;2023-03-01T13:33:46;13.73;;;7.60;;
65759;SDS011;52496;51.082;5.066;2023-03-01T13:37:01;12.00;;;7.72;;
65759;SDS011;52496;51.082;5.066;2023-03-01T13:39:29;12.32;;;7.15;;
65759;SDS011;52496;51.082;5.066;2023-03-01T13:42:02;13.18;;;7.88;;
65759;SDS011;52496;51.082;5.066;2023-03-01T13:44:33;10.75;;;7.18;;
65759;SDS011;52496;51.082;5.066;2023-03-01T13:50:01;11.57;;;7.10;;
65759;SDS011;52496;51.082;5.066;2023-03-01T13:52:40;12.98;;;7.78;;
65759;SDS011;52496;51.082;5.066;2023-03-01T13:55:16;13.18;;;6.60;;
65759;SDS011;52496;51.082;5.066;2023-03-01T13:57:55;11.68;;;6.95;;
65759;SDS011;52496;51.082;5.066;2023-03-01T14:00:29;13.05;;;6.60;;
65759;SDS011;52496;51.082;5.066;2023-03-01T14:03:19;14.75;;;7.70;;
65759;SDS011;52496;51.082;5.066;2023-03-01T14:06:00;12.23;;;7.05;;
65759;SDS011;52496;51.082;5.066;2023-03-01T14:08:34;13.75;;;7.97;;
65759;SDS011;52496;51.082;5.066;2023-03-01T14:14:06;11.07;;;7.68;;
65759;SDS011;52496;51.082;5.066;2023-03-01T14:16:54;13.95;;;7.82;;
65759;SDS011;52496;51.082;5.066;2023-03-01T14:19:38;12.93;;;7.18;;
65759;SDS011;52496;51.082;5.066;2023-03-01T14:22:22;13.82;;;7.72;;
65759;SDS011;52496;51.082;5.066;2023-03-01T14:24:59;13.02;;;7.35;;
65759;SDS011;52496;51.082;5.066;2023-03-01T14:27:38;14.55;;;7.57;;
65759;SDS011;52496;51.082;5.066;2023-03-01T14:30:34;11.13;;;7.28;;
65759;SDS011;52496;51.082;5.066;2023-03-01T14:33:06;12.57;;;8.30;;
65759;SDS011;52496;51.082;5.066;2023-03-01T14:35:59;12.38;;;7.55;;
65759;SDS011;52496;51.082;5.066;2023-03-01T14:38:36;10.30;;;6.47;;
65759;SDS011;52496;51.082;5.066;2023-03-01T14:43:46;10.85;;;6.85;;
65759;SDS011;52496;51.082;5.066;2023-03-01T14:46:38;12.38;;;7.13;;
65759;SDS011;52496;51.082;5.066;2023-03-01T14:51:55;12.80;;;6.93;;
65759;SDS011;52496;51.082;5.066;2023-03-01T14:57:26;10.27;;;6.90;;
65759;SDS011;52496;51.082;5.066;2023-03-01T15:00:00;10.95;;;6.63;;
65759;SDS011;52496;51.082;5.066;2023-03-01T15:02:35;13.40;;;6.72;;
65759;SDS011;52496;51.082;5.066;2023-03-01T15:05:05;13.98;;;6.80;;
65759;SDS011;52496;51.082;5.066;2023-03-01T15:07:41;11.75;;;6.82;;
65759;SDS011;52496;51.082;5.066;2023-03-01T15:10:24;11.85;;;6.60;;
65759;SDS011;52496;51.082;5.066;2023-03-01T15:13:09;8.98;;;6.70;;
65759;SDS011;52496;51.082;5.066;2023-03-01T15:15:44;10.27;;;6.15;;
65759;SDS011;52496;51.082;5.066;2023-03-01T15:18:19;13.50;;;6.53;;
65759;SDS011;52496;51.082;5.066;2023-03-01T15:20:52;11.00;;;6.50;;
65759;SDS011;52496;51.082;5.066;2023-03-01T15:23:27;9.77;;;6.53;;
65759;SDS011;52496;51.082;5.066;2023-03-01T15:25:59;11.43;;;6.65;;
65759;SDS011;52496;51.082;5.066;2023-03-01T15:28:31;8.93;;;6.22;;
65759;SDS011;52496;51.082;5.066;2023-03-01T15:31:18;11.75;;;6.30;;
65759;SDS011;52496;51.082;5.066;2023-03-01T15:33:51;11.38;;;6.45;;
65759;SDS011;52496;51.082;5.066;2023-03-01T15:42:35;11.00;;;7.03;;
65759;SDS011;52496;51.082;5.066;2023-03-01T15:47:47;10.68;;;6.35;;
65759;SDS011;52496;51.082;5.066;2023-03-01T15:53:07;9.95;;;6.47;;
65759;SDS011;52496;51.082;5.066;2023-03-01T15:55:41;10.82;;;7.15;;
65759;SDS011;52496;51.082;5.066;2023-03-01T15:58:13;12.25;;;6.18;;
65759;SDS011;52496;51.082;5.066;2023-03-01T16:00:51;13.00;;;7.07;;
65759;SDS011;52496;51.082;5.066;2023-03-01T16:03:26;13.82;;;6.22;;
65759;SDS011;52496;51.082;5.066;2023-03-01T16:05:57;11.13;;;6.20;;
65759;SDS011;52496;51.082;5.066;2023-03-01T16:08:28;12.05;;;6.97;;
65759;SDS011;52496;51.082;5.066;2023-03-01T16:10:59;10.65;;;6.03;;
65759;SDS011;52496;51.082;5.066;2023-03-01T16:13:30;9.90;;;5.43;;
65759;SDS011;52496;51.082;5.066;2023-03-01T16:16:01;9.50;;;6.10;;
65759;SDS011;52496;51.082;5.066;2023-03-01T16:18:32;9.88;;;6.15;;
65759;SDS011;52496;51.082;5.066;2023-03-01T16:21:02;13.20;;;7.10;;
65759;SDS011;52496;51.082;5.066;2023-03-01T16:23:33;14.27;;;7.10;;
65759;SDS011;52496;51.082;5.066;2023-03-01T16:26:04;10.43;;;5.97;;
65759;SDS011;52496;51.082;5.066;2023-03-01T16:28:35;11.55;;;5.97;;
65759;SDS011;52496;51.082;5.066;2023-03-01T16:31:05;9.93;;;5.85;;
65759;SDS011;52496;51.082;5.066;2023-03-01T16:33:36;10.35;;;5.85;;
65759;SDS011;52496;51.082;5.066;2023-03-01T16:36:08;13.77;;;6.50;;
65759;SDS011;52496;51.082;5.066;2023-03-01T16:38:41;13.32;;;6.80;;
65759;SDS011;52496;51.082;5.066;2023-03-01T16:41:15;12.95;;;6.70;;
65759;SDS011;52496;51.082;5.066;2023-03-01T16:43:48;11.20;;;6.32;;
65759;SDS011;52496;51.082;5.066;2023-03-01T16:46:21;12.13;;;5.80;;
65759;SDS011;52496;51.082;5.066;2023-03-01T16:48:57;9.68;;;6.10;;
65759;SDS011;52496;51.082;5.066;2023-03-01T16:51:28;10.25;;;5.72;;
65759;SDS011;52496;51.082;5.066;2023-03-01T16:53:59;9.75;;;5.95;;
65759;SDS011;52496;51.082;5.066;2023-03-01T16:56:30;14.65;;;6.32;;
65759;SDS011;52496;51.082;5.066;2023-03-01T16:59:02;10.73;;;6.43;;
65759;SDS011;52496;51.082;5.066;2023-03-01T17:01:33;12.70;;;6.50;;
65759;SDS011;52496;51.082;5.066;2023-03-01T17:04:04;12.25;;;6.68;;
65759;SDS011;52496;51.082;5.066;2023-03-01T17:06:35;17.65;;;7.22;;
65759;SDS011;52496;51.082;5.066;2023-03-01T17:09:05;13.50;;;6.45;;
65759;SDS011;52496;51.082;5.066;2023-03-01T17:11:36;12.90;;;6.63;;